Terminal Aerodrome Forecast
Issued by NWS

Home | Current Version | Previous Version | Text Only | Print | Product List | Glossary On
Versions: 1 2 3 4 5 6 7 8 9 10 11 12 13 14 15 16
765
FTUS42 KMLB 271426 AAA
TAFISM
TAF AMD
KISM 271426Z 2714/2812 08012KT P6SM FEW025 BKN300
     FM271700 07012G18KT P6SM VCSH FEW025 SCT035 SCT070
     FM280000 05007KT P6SM FEW030 SCT070=

USA.gov is the U.S. government's official web portal to all federal, state and local government web resources and services.